EGMD/LYX METAR and TAF weather

Enter ICAO airport designator
Station Type Date Time Source
EGMD METAR 2023/01/30 11:50 UTC NOAA

EGMD 301150Z 31015KT CAVOK 09/03 Q1025


Station Type Date Time Source
EGMD Decoded METAR 2023/01/30 11:50 UTC NOAA

Lydd Airport , United Kingdom (EGMD) 50-57N 000-56E
Jan 30, 2023 - 06:50 AM EST / 2023.01.30 1150 UTC
Wind: from the NW (310 degrees) at 17 MPH (15 KT):0
Visibility: greater than 7 mile(s):0
Temperature: 48 F (9 C)
Dew Point: 37 F (3 C)
Relative Humidity: 66%
Pressure (altimeter): 30.27 in. Hg (1025 hPa)
ob: EGMD 301150Z 31015KT CAVOK 09/03 Q1025
cycle: 12

Station Type Date Time Source
EGMD TAF UTC NOAA

Error!

Example: see airport list